createdAt,value
2023-05-01T08:10:40.074Z,99.90
2023-05-01T08:13:07.237Z,99.90
2023-05-01T08:15:35.306Z,99.90
2023-05-01T08:18:02.718Z,99.90
2023-05-01T08:20:29.887Z,99.90
2023-05-01T08:22:57.115Z,99.90
2023-05-01T08:25:24.306Z,99.90
2023-05-01T08:27:52.342Z,99.90
2023-05-01T08:30:19.696Z,99.90
2023-05-01T08:32:47.296Z,99.90
2023-05-01T08:35:16.781Z,99.90
2023-05-01T08:37:44.110Z,99.90
2023-05-01T08:40:12.022Z,99.90
2023-05-01T08:42:39.433Z,99.90
2023-05-01T08:45:10.962Z,99.90
2023-05-01T08:47:40.534Z,99.90
2023-05-01T08:50:13.272Z,99.90
2023-05-01T08:52:44.490Z,99.90
2023-05-01T08:55:16.009Z,99.90
2023-05-01T08:57:48.251Z,99.90
2023-05-01T09:00:20.443Z,99.90
2023-05-01T09:02:50.810Z,99.90
2023-05-01T09:05:21.308Z,99.90
2023-05-01T09:07:48.811Z,99.90
2023-05-01T09:10:18.476Z,99.90
2023-05-01T09:12:54.054Z,99.90
2023-05-01T09:15:22.583Z,99.90
2023-05-01T09:17:50.589Z,99.90
2023-05-01T09:20:19.987Z,99.90
2023-05-01T09:22:47.665Z,99.90
2023-05-01T09:25:14.878Z,99.90
2023-05-01T09:27:42.329Z,99.90
2023-05-01T09:30:10.147Z,99.90
2023-05-01T09:32:37.615Z,99.90
2023-05-01T09:35:13.952Z,99.90
2023-05-01T09:37:41.739Z,99.90
2023-05-01T09:40:14.648Z,99.90
2023-05-01T09:42:53.714Z,99.90
2023-05-01T09:45:21.110Z,99.90
2023-05-01T09:47:48.582Z,99.90
2023-05-01T09:50:34.043Z,99.90
2023-05-01T09:53:05.642Z,99.90
2023-05-01T09:55:34.581Z,99.90
2023-05-01T09:58:02.233Z,99.90
2023-05-01T10:00:49.283Z,99.90
2023-05-01T10:03:16.648Z,99.90
2023-05-01T10:05:46.191Z,99.90
2023-05-01T10:08:13.618Z,99.90
2023-05-01T10:10:42.242Z,99.90
2023-05-01T10:13:17.600Z,99.90
2023-05-01T10:15:45.745Z,99.90
2023-05-01T10:18:14.719Z,99.90
2023-05-01T10:20:42.208Z,99.90
2023-05-01T10:23:11.062Z,99.90
2023-05-01T10:25:43.420Z,99.90
2023-05-01T10:28:12.752Z,99.90
2023-05-01T10:30:42.287Z,99.90
2023-05-01T10:33:12.678Z,99.90
2023-05-01T10:35:44.990Z,99.90
2023-05-01T10:38:34.478Z,99.90
2023-05-01T10:41:01.882Z,99.90
2023-05-01T10:43:31.136Z,99.90
2023-05-01T10:46:10.459Z,99.90
2023-05-01T10:48:40.963Z,99.90
2023-05-01T10:51:28.246Z,99.90
2023-05-01T10:54:31.822Z,99.90
2023-05-01T10:57:03.418Z,99.90
2023-05-01T11:00:04.559Z,99.90
2023-05-01T11:02:31.780Z,99.90
2023-05-01T11:04:59.220Z,99.90
2023-05-01T11:07:27.129Z,99.90
2023-05-01T11:09:56.176Z,99.90
2023-05-01T11:12:45.189Z,99.90
2023-05-01T11:15:25.105Z,99.90
2023-05-01T11:17:52.641Z,99.90
2023-05-01T11:20:26.154Z,99.90
2023-05-01T11:22:56.468Z,99.90
2023-05-01T11:25:27.295Z,99.90
2023-05-01T11:28:00.394Z,99.90
2023-05-01T11:30:37.845Z,99.90
2023-05-01T11:33:05.795Z,99.90
2023-05-01T11:35:34.162Z,99.90
2023-05-01T11:38:01.300Z,99.90
2023-05-01T11:40:32.001Z,99.90
2023-05-01T11:43:07.346Z,99.90
2023-05-01T11:45:37.284Z,99.90
2023-05-01T11:48:15.152Z,99.90
2023-05-01T11:50:42.429Z,99.90
2023-05-01T11:53:15.003Z,99.90
2023-05-01T11:55:42.190Z,99.90
2023-05-01T11:58:09.625Z,99.90
2023-05-01T12:00:42.402Z,99.90
2023-05-01T12:03:15.163Z,99.90
2023-05-01T12:05:46.051Z,99.90
2023-05-01T12:08:22.085Z,99.90
2023-05-01T12:10:54.587Z,99.90
2023-05-01T12:13:22.964Z,99.90
2023-05-01T12:15:54.519Z,99.90
2023-05-01T12:18:22.915Z,99.90
2023-05-01T12:20:55.162Z,99.90
2023-05-01T12:23:36.528Z,99.90
2023-05-01T12:26:16.905Z,99.90
2023-05-01T12:29:04.929Z,99.90
2023-05-01T12:31:33.763Z,99.90
2023-05-01T12:34:08.224Z,99.90
2023-05-01T12:36:36.930Z,99.90
2023-05-01T12:39:08.760Z,99.90
2023-05-01T12:41:51.962Z,99.90
2023-05-01T12:44:24.942Z,99.90
2023-05-01T12:47:14.353Z,99.90
2023-05-01T12:49:42.080Z,99.90
2023-05-01T12:52:09.737Z,99.90
2023-05-01T12:54:39.755Z,99.90
2023-05-01T12:57:15.061Z,99.90
2023-05-01T12:59:46.863Z,99.90
2023-05-01T13:02:18.028Z,99.90
2023-05-01T13:04:46.654Z,99.70
2023-05-01T13:07:19.317Z,99.40
2023-05-01T13:09:59.402Z,99.20
2023-05-01T13:12:28.826Z,99.20
2023-05-01T13:14:57.472Z,99.40
2023-05-01T13:17:29.770Z,99.70
2023-05-01T13:20:00.757Z,99.10
2023-05-01T13:22:38.531Z,99.90
2023-05-01T13:25:17.132Z,99.50
2023-05-01T13:27:52.849Z,99.90
2023-05-01T13:30:30.711Z,99.90
2023-05-01T13:32:57.952Z,99.40
2023-05-01T13:35:27.062Z,99.90
2023-05-01T13:37:55.175Z,99.90
2023-05-01T13:40:27.797Z,99.90
2023-05-01T13:42:55.421Z,99.90
2023-05-01T13:45:22.959Z,99.90
2023-05-01T13:47:53.428Z,99.90
2023-05-01T13:50:20.827Z,99.90
2023-05-01T13:52:48.101Z,99.90
2023-05-01T13:55:17.502Z,99.90
2023-05-01T13:57:44.781Z,99.90
2023-05-01T14:00:17.153Z,99.90
2023-05-01T14:02:47.856Z,99.90
2023-05-01T14:05:26.787Z,99.90
2023-05-01T14:08:00.412Z,99.90
2023-05-01T14:10:29.348Z,99.90
2023-05-01T14:12:59.116Z,99.90
2023-05-01T14:15:27.416Z,99.90
2023-05-01T14:17:54.706Z,99.90
2023-05-01T14:20:25.428Z,99.90
2023-05-01T14:22:52.836Z,99.90
2023-05-01T14:25:32.104Z,99.90
2023-05-01T14:28:01.748Z,99.90
2023-05-01T14:30:35.387Z,99.90
2023-05-01T14:33:10.602Z,99.90
2023-05-01T14:35:53.644Z,99.90
2023-05-01T14:38:22.488Z,99.90
2023-05-01T14:40:49.933Z,99.90
2023-05-01T14:43:20.244Z,99.90
2023-05-01T14:45:47.747Z,99.90
2023-05-01T14:48:22.287Z,99.90
2023-05-01T14:50:51.008Z,99.90
2023-05-01T14:53:18.735Z,99.90
2023-05-01T14:55:49.640Z,99.90
2023-05-01T14:58:17.075Z,99.90
2023-05-01T15:00:44.435Z,96.20
2023-05-01T15:03:11.832Z,96.50
2023-05-01T15:05:39.215Z,96.30
2023-05-01T15:08:06.499Z,96.50
2023-05-01T15:10:33.967Z,96.10
2023-05-01T15:13:01.627Z,96.00
2023-05-01T15:15:28.873Z,95.80
2023-05-01T15:17:56.387Z,96.00
2023-05-01T15:20:23.939Z,96.60
2023-05-01T15:22:51.434Z,96.70
2023-05-01T15:25:18.837Z,96.50
2023-05-01T15:27:46.635Z,97.00
2023-05-01T15:30:15.410Z,96.60
2023-05-01T15:32:43.038Z,96.90
2023-05-01T15:35:10.470Z,96.70
2023-05-01T15:37:37.824Z,97.10
2023-05-01T15:40:06.676Z,96.90
2023-05-01T15:42:36.720Z,96.70
2023-05-01T15:45:04.440Z,96.40
2023-05-01T15:47:31.704Z,96.50
2023-05-01T15:49:59.319Z,96.90
2023-05-01T15:52:26.662Z,96.40
2023-05-01T15:54:54.028Z,96.90
2023-05-01T15:57:21.217Z,97.30
2023-05-01T15:59:49.073Z,96.80
2023-05-01T16:02:16.397Z,96.80
2023-05-01T16:04:46.369Z,97.10
2023-05-01T16:07:14.524Z,97.10
2023-05-01T16:09:42.671Z,97.30
2023-05-01T16:12:09.935Z,97.50
2023-05-01T16:14:40.187Z,97.90
2023-05-01T16:17:08.043Z,98.40
2023-05-01T16:19:35.560Z,98.30
2023-05-01T16:22:06.561Z,97.80
2023-05-01T16:24:34.802Z,97.80
2023-05-01T16:27:03.106Z,97.80
2023-05-01T16:29:34.081Z,98.10
2023-05-01T16:32:03.962Z,98.00
2023-05-01T16:34:32.083Z,98.10
2023-05-01T16:36:59.378Z,98.30
2023-05-01T16:39:26.617Z,98.30
2023-05-01T16:41:55.413Z,98.80
2023-05-01T16:44:23.249Z,98.80
2023-05-01T16:46:56.558Z,98.80
2023-05-01T16:49:26.409Z,99.00
2023-05-01T16:51:54.085Z,98.80
2023-05-01T16:54:21.363Z,98.70
2023-05-01T16:56:48.907Z,99.10
2023-05-01T16:59:16.610Z,98.90
2023-05-01T17:01:44.209Z,99.10
2023-05-01T17:04:13.036Z,98.90
2023-05-01T17:06:40.319Z,98.90
2023-05-01T17:09:07.616Z,99.20
2023-05-01T17:11:35.348Z,99.00
2023-05-01T17:14:03.244Z,99.20
2023-05-01T17:16:42.437Z,99.50
2023-05-01T17:19:09.766Z,99.60
2023-05-01T17:21:46.065Z,99.60
2023-05-01T17:24:13.419Z,99.60
2023-05-01T17:26:40.680Z,99.70
2023-05-01T17:29:08.170Z,99.70
2023-05-01T17:31:35.472Z,99.80
2023-05-01T17:34:02.693Z,99.90
2023-05-01T17:36:30.302Z,99.90
2023-05-01T17:38:57.977Z,99.90
2023-05-01T17:41:25.181Z,99.90
2023-05-01T17:43:52.523Z,99.90
2023-05-01T17:46:19.911Z,99.90
2023-05-01T17:51:15.315Z,99.90
2023-05-01T17:53:43.013Z,99.90
2023-05-01T17:56:10.449Z,99.90
2023-05-01T17:58:37.754Z,99.90
2023-05-01T18:01:05.220Z,99.90
2023-05-01T18:03:32.751Z,99.90
2023-05-01T18:06:02.156Z,99.90
2023-05-01T18:08:29.323Z,99.90
2023-05-01T18:10:56.488Z,99.90
2023-05-01T18:13:24.031Z,99.90
2023-05-01T18:15:52.028Z,99.90
2023-05-01T18:18:19.631Z,99.90
2023-05-01T18:20:47.118Z,99.90
2023-05-01T18:23:14.603Z,99.90
2023-05-01T18:25:41.778Z,99.90
2023-05-01T18:28:09.098Z,99.90
2023-05-01T18:30:36.266Z,99.90
2023-05-01T18:33:03.646Z,99.90
2023-05-01T18:35:30.897Z,99.90
2023-05-01T18:37:58.108Z,99.90
2023-05-01T18:40:25.348Z,99.90
2023-05-01T18:42:52.504Z,99.90
2023-05-01T18:45:19.706Z,99.90
2023-05-01T18:47:47.169Z,99.90
2023-05-01T18:50:14.445Z,99.90
2023-05-01T18:52:41.720Z,99.90
2023-05-01T18:55:10.105Z,99.90
2023-05-01T18:57:37.586Z,99.90
2023-05-01T19:00:05.767Z,99.90
2023-05-01T19:02:32.992Z,99.90
2023-05-01T19:05:00.338Z,99.90
2023-05-01T19:07:27.616Z,99.90
2023-05-01T19:09:55.178Z,99.90
2023-05-01T19:12:22.468Z,99.90
2023-05-01T19:14:49.584Z,99.90
2023-05-01T19:17:16.910Z,99.90
2023-05-01T19:19:44.096Z,99.90
2023-05-01T19:22:11.500Z,99.90
2023-05-01T19:24:38.925Z,99.90
2023-05-01T19:27:06.286Z,99.90
2023-05-01T19:29:33.960Z,99.90
2023-05-01T19:32:01.228Z,99.90
2023-05-01T19:34:29.098Z,99.90
2023-05-01T19:36:56.282Z,99.90
2023-05-01T19:39:24.256Z,99.90
2023-05-01T19:41:51.587Z,99.90
2023-05-01T19:44:19.025Z,99.90
2023-05-01T19:46:46.610Z,99.90
2023-05-01T19:49:13.849Z,99.90
2023-05-01T19:51:41.110Z,99.90
2023-05-01T19:54:08.395Z,99.90
2023-05-01T19:56:35.704Z,99.90
2023-05-01T19:59:02.936Z,99.90
2023-05-01T20:01:30.449Z,99.90
2023-05-01T20:03:57.869Z,99.90
2023-05-01T20:06:25.193Z,99.90
2023-05-01T20:08:52.440Z,99.90
2023-05-01T20:11:19.858Z,99.90
2023-05-01T20:13:47.228Z,99.90
2023-05-01T20:16:14.892Z,99.90
2023-05-01T20:18:42.365Z,99.90
2023-05-01T20:21:09.930Z,99.90
2023-05-01T20:23:37.443Z,99.90
2023-05-01T20:26:04.849Z,99.90
2023-05-01T20:28:32.085Z,99.90
2023-05-01T20:30:59.415Z,99.90
2023-05-01T20:33:26.706Z,99.90
